Time;durP1;ratioP1;P1;durP2;ratioP2;P2;SDS_P1;SDS_P2;PMS_P1;PMS_P2;Temp;Humidity;BMP_temperature;BMP_pressure;BME280_temperature;BME280_humidity;BME280_pressure;Samples;Min_cycle;Max_cycle;Signal;HPM_P1;HPM_P2
2023/06/01 00:02:25;;;;;;;7.43;2.20;;;19.90;43.40;;;;;;4993385;28;20054;-44
2023/06/01 00:04:54;;;;;;;2.55;1.83;;;19.90;43.40;;;;;;5059590;23;20049;-85
2023/06/01 00:07:23;;;;;;;3.90;1.88;;;19.90;43.50;;;;;;5037855;28;20503;-85
2023/06/01 00:09:51;;;;;;;4.45;2.00;;;19.80;43.50;;;;;;5037981;28;20052;-85
2023/06/01 00:12:18;;;;;;;4.40;1.75;;;19.80;43.60;;;;;;5037108;28;20057;-85
2023/06/01 00:14:45;;;;;;;5.65;2.08;;;19.80;43.80;;;;;;5038042;28;20451;-85
2023/06/01 00:17:13;;;;;;;3.85;1.80;;;19.80;44.00;;;;;;5038680;28;20841;-86
2023/06/01 00:19:40;;;;;;;3.40;1.80;;;19.80;44.00;;;;;;5038835;28;20061;-86
2023/06/01 00:22:08;;;;;;;4.97;2.20;;;19.70;44.00;;;;;;5036076;28;21025;-85
2023/06/01 00:24:36;;;;;;;3.25;1.90;;;19.70;44.00;;;;;;5039609;28;20064;-85
2023/06/01 00:27:05;;;;;;;3.17;1.80;;;19.70;44.00;;;;;;5043537;28;20527;-85
2023/06/01 00:29:32;;;;;;;4.32;2.00;;;19.70;44.10;;;;;;5035339;28;20060;-87
2023/06/01 00:31:59;;;;;;;3.65;2.30;;;19.60;44.00;;;;;;5034926;28;20053;-88
2023/06/01 00:34:27;;;;;;;7.05;2.65;;;19.60;44.30;;;;;;5039683;28;20488;-88
2023/06/01 00:36:54;;;;;;;2.78;1.98;;;19.60;44.50;;;;;;5036828;28;20500;-88
2023/06/01 00:39:22;;;;;;;4.93;2.30;;;19.50;44.40;;;;;;5038362;28;20056;-86
2023/06/01 00:41:50;;;;;;;2.03;1.70;;;19.40;44.70;;;;;;5036688;28;20060;-87
2023/06/01 00:44:17;;;;;;;8.30;2.25;;;19.30;44.60;;;;;;5036261;28;20528;-88
2023/06/01 00:46:44;;;;;;;3.80;1.98;;;19.30;44.70;;;;;;5036671;28;20056;-85
2023/06/01 00:49:12;;;;;;;4.43;1.77;;;19.20;44.70;;;;;;5036884;28;20052;-85
2023/06/01 00:51:40;;;;;;;4.20;1.88;;;19.10;44.80;;;;;;5032261;28;20045;-88
2023/06/01 00:54:08;;;;;;;3.97;2.13;;;19.10;44.90;;;;;;5038422;28;20056;-87
2023/06/01 00:56:37;;;;;;;2.47;1.88;;;19.00;45.00;;;;;;5037374;28;20045;-85
2023/06/01 00:59:04;;;;;;;2.55;1.50;;;19.00;45.10;;;;;;5038819;28;20053;-86
2023/06/01 01:01:33;;;;;;;3.90;1.80;;;18.90;45.20;;;;;;5037229;28;20056;-87
2023/06/01 01:04:00;;;;;;;3.70;2.00;;;18.90;45.40;;;;;;5060041;23;20419;-38
2023/06/01 01:06:41;;;;;;;2.90;1.63;;;18.90;45.50;;;;;;5058144;28;20044;-38
2023/06/01 01:09:18;;;;;;;6.93;2.03;;;18.80;45.60;;;;;;5059647;28;20482;-37
2023/06/01 01:11:53;;;;;;;4.63;1.80;;;18.80;45.80;;;;;;5059546;28;20060;-38
2023/06/01 01:14:24;;;;;;;4.25;2.03;;;18.80;45.80;;;;;;5059121;28;20056;-39
2023/06/01 01:17:02;;;;;;;4.88;2.40;;;18.80;45.90;;;;;;5059780;28;20506;-39
2023/06/01 01:19:54;;;;;;;5.05;2.00;;;18.70;45.90;;;;;;5060352;28;20060;-45
2023/06/01 01:22:53;;;;;;;5.28;2.03;;;18.70;45.80;;;;;;5057751;28;20056;-37
2023/06/01 01:25:38;;;;;;;3.38;1.80;;;18.70;45.70;;;;;;5057105;28;20052;-40
2023/06/01 01:28:26;;;;;;;5.30;2.08;;;18.70;45.70;;;;;;5057165;28;20057;-38
2023/06/01 01:30:55;;;;;;;3.53;2.10;;;18.60;45.80;;;;;;5055384;28;20775;-37
2023/06/01 01:33:22;;;;;;;4.82;2.28;;;18.60;45.70;;;;;;5059068;28;20487;-37
2023/06/01 01:35:50;;;;;;;4.03;2.30;;;18.60;45.90;;;;;;5060906;28;20049;-38
2023/06/01 01:38:18;;;;;;;5.82;2.88;;;18.50;46.30;;;;;;5056980;28;20057;-37
2023/06/01 01:40:45;;;;;;;4.25;2.15;;;18.40;46.40;;;;;;5059292;28;20053;-38
2023/06/01 01:43:13;;;;;;;8.57;2.50;;;18.40;46.50;;;;;;5058335;28;20053;-38
2023/06/01 01:45:41;;;;;;;5.50;2.47;;;18.20;46.70;;;;;;5059428;28;20054;-41
2023/06/01 01:48:15;;;;;;;3.72;2.22;;;18.20;46.80;;;;;;5062141;28;20063;-38
2023/06/01 01:50:49;;;;;;;3.50;2.13;;;18.10;47.00;;;;;;5061559;28;20048;-37
2023/06/01 01:53:18;;;;;;;3.00;1.50;;;18.00;47.00;;;;;;5057278;28;20412;-38
2023/06/01 01:55:48;;;;;;;4.47;1.65;;;18.00;47.00;;;;;;5063027;28;20508;-37
2023/06/01 01:58:16;;;;;;;4.18;2.08;;;17.90;47.20;;;;;;5064978;28;20052;-39
2023/06/01 02:00:46;;;;;;;4.63;2.03;;;17.90;47.20;;;;;;5064965;28;20515;-41
2023/06/01 02:03:17;;;;;;;2.90;2.20;;;17.90;47.40;;;;;;5065544;28;20064;-41
2023/06/01 02:05:44;;;;;;;6.22;2.42;;;17.90;47.50;;;;;;5060946;28;20063;-40
2023/06/01 02:08:11;;;;;;;4.20;1.88;;;17.80;47.50;;;;;;5062113;28;20075;-38
2023/06/01 02:10:40;;;;;;;2.53;1.65;;;17.80;47.60;;;;;;5064392;28;20052;-38
2023/06/01 02:13:07;;;;;;;3.55;2.03;;;17.80;47.60;;;;;;5064213;28;20420;-38
2023/06/01 02:15:35;;;;;;;3.90;2.20;;;17.80;47.70;;;;;;5065826;28;20127;-37
2023/06/01 02:18:03;;;;;;;4.60;2.38;;;17.80;47.80;;;;;;5062288;28;20060;-37
2023/06/01 02:20:31;;;;;;;3.80;2.10;;;17.70;47.90;;;;;;5064964;28;20480;-37
2023/06/01 02:22:58;;;;;;;6.10;2.50;;;17.70;48.00;;;;;;5063028;28;20053;-38
2023/06/01 02:25:25;;;;;;;3.25;1.80;;;17.70;48.00;;;;;;5064938;28;20051;-37
2023/06/01 02:27:52;;;;;;;6.00;2.50;;;17.70;48.00;;;;;;5063498;28;20354;-37
2023/06/01 02:30:20;;;;;;;6.60;2.38;;;17.70;48.10;;;;;;5065412;28;20531;-37
2023/06/01 02:32:48;;;;;;;5.10;1.85;;;17.70;48.20;;;;;;5061320;28;20051;-38
2023/06/01 02:35:16;;;;;;;5.38;2.03;;;17.70;48.20;;;;;;5064894;28;20067;-43
2023/06/01 02:37:44;;;;;;;3.08;1.90;;;17.60;48.20;;;;;;5063038;28;20045;-37
2023/06/01 02:40:12;;;;;;;4.50;2.10;;;17.60;48.20;;;;;;5063305;28;20063;-39
2023/06/01 02:42:39;;;;;;;5.60;2.22;;;17.60;48.30;;;;;;5064418;28;20399;-37
2023/06/01 02:45:09;;;;;;;4.50;2.35;;;17.60;48.40;;;;;;5064788;28;20048;-37
2023/06/01 02:47:37;;;;;;;3.13;2.10;;;17.50;48.40;;;;;;5063887;28;20067;-37
2023/06/01 02:50:05;;;;;;;4.28;2.30;;;17.50;48.40;;;;;;5064013;28;20492;-38
2023/06/01 02:52:35;;;;;;;4.22;2.10;;;17.50;48.50;;;;;;5062290;28;20400;-37
2023/06/01 02:55:02;;;;;;;7.03;2.47;;;17.50;48.60;;;;;;5063949;28;20053;-39
2023/06/01 02:57:29;;;;;;;5.80;2.00;;;17.50;48.60;;;;;;5065065;28;20051;-38
2023/06/01 02:59:56;;;;;;;3.85;2.38;;;17.40;48.70;;;;;;5064152;28;20048;-40
2023/06/01 03:02:23;;;;;;;4.03;2.33;;;17.40;48.70;;;;;;5063987;28;20060;-40
2023/06/01 03:04:51;;;;;;;4.90;2.38;;;17.40;48.70;;;;;;5064085;28;20052;-37
2023/06/01 03:07:18;;;;;;;5.43;2.47;;;17.40;48.80;;;;;;5062115;28;20045;-38
2023/06/01 03:09:46;;;;;;;4.35;2.47;;;17.40;49.00;;;;;;5064746;28;20048;-37
2023/06/01 03:12:14;;;;;;;4.70;2.50;;;17.40;49.00;;;;;;5063650;28;20052;-38
2023/06/01 03:14:41;;;;;;;4.30;2.33;;;17.30;49.00;;;;;;5062112;28;20598;-37
2023/06/01 03:17:09;;;;;;;4.32;2.30;;;17.30;49.20;;;;;;5040230;28;20064;-37
2023/06/01 03:19:36;;;;;;;4.95;2.22;;;17.30;49.20;;;;;;5043073;28;20049;-39
2023/06/01 03:22:03;;;;;;;3.13;1.80;;;17.30;49.20;;;;;;5042445;28;20057;-38
2023/06/01 03:24:31;;;;;;;4.57;2.25;;;17.30;49.20;;;;;;5044119;28;20053;-37
2023/06/01 03:27:01;;;;;;;4.63;2.33;;;17.30;49.30;;;;;;5044455;28;21178;-46
2023/06/01 03:29:29;;;;;;;4.10;1.88;;;17.30;49.30;;;;;;5043539;28;20052;-48
2023/06/01 03:31:56;;;;;;;7.15;2.40;;;17.20;49.20;;;;;;5043284;28;20049;-46
2023/06/01 03:35:16;;;;;;;3.65;1.83;;;17.20;49.20;;;;;;5043711;28;20061;-46
2023/06/01 03:37:44;;;;;;;3.72;2.20;;;17.20;49.40;;;;;;5041856;28;20049;-40
2023/06/01 03:40:12;;;;;;;2.88;1.92;;;17.20;49.20;;;;;;5043243;28;20056;-36
2023/06/01 03:42:42;;;;;;;4.75;2.10;;;17.10;49.30;;;;;;5043564;28;20512;-36
2023/06/01 03:45:10;;;;;;;4.05;2.45;;;17.10;49.40;;;;;;5043749;28;20057;-38
2023/06/01 03:47:38;;;;;;;6.75;2.40;;;17.10;49.50;;;;;;5043015;28;20072;-37
2023/06/01 03:50:07;;;;;;;6.90;2.35;;;17.10;49.50;;;;;;5043017;28;20499;-40
2023/06/01 03:52:35;;;;;;;4.43;2.22;;;17.10;49.70;;;;;;5024151;28;20057;-37
2023/06/01 03:55:08;;;;;;;8.95;3.60;;;17.10;49.70;;;;;;5041604;28;20059;-42
2023/06/01 03:57:35;;;;;;;8.55;3.28;;;17.10;50.10;;;;;;5042107;28;20052;-37
2023/06/01 04:00:17;;;;;;;6.20;3.25;;;17.00;50.10;;;;;;5042739;28;20080;-38
2023/06/01 04:02:49;;;;;;;7.63;3.05;;;17.00;50.40;;;;;;5042935;28;20072;-36
2023/06/01 04:05:17;;;;;;;8.30;3.60;;;16.90;50.40;;;;;;5042852;28;20147;-36
2023/06/01 04:07:45;;;;;;;9.60;3.40;;;16.80;50.40;;;;;;5041687;28;20059;-38
2023/06/01 04:10:13;;;;;;;6.20;3.20;;;16.70;50.60;;;;;;5043027;28;20507;-38
2023/06/01 04:12:42;;;;;;;9.82;3.60;;;16.70;50.70;;;;;;5043435;28;21438;-37
2023/06/01 04:15:12;;;;;;;9.45;3.83;;;16.60;51.10;;;;;;5042880;28;20087;-40
2023/06/01 04:17:40;;;;;;;10.60;4.50;;;16.50;51.80;;;;;;5041732;28;20396;-37
2023/06/01 04:20:10;;;;;;;7.55;3.65;;;16.50;52.10;;;;;;5041503;28;20488;-38
2023/06/01 04:22:37;;;;;;;7.63;2.75;;;16.50;52.20;;;;;;5041172;28;20053;-38
2023/06/01 04:25:08;;;;;;;5.57;3.25;;;16.50;52.10;;;;;;5043704;28;20057;-39
2023/06/01 04:27:37;;;;;;;5.28;2.80;;;16.50;52.20;;;;;;5042539;28;20538;-38
2023/06/01 04:30:07;;;;;;;4.25;2.28;;;16.50;52.10;;;;;;5042467;28;20064;-41
2023/06/01 04:32:37;;;;;;;7.25;3.10;;;16.50;52.10;;;;;;5038905;28;20057;-39
2023/06/01 04:35:06;;;;;;;6.65;3.03;;;16.50;52.20;;;;;;5042767;28;20053;-42
2023/06/01 04:37:34;;;;;;;5.35;3.08;;;16.60;52.30;;;;;;5039702;28;20060;-38
2023/06/01 04:40:06;;;;;;;8.50;3.47;;;16.60;52.40;;;;;;5043154;28;20056;-37
2023/06/01 04:42:34;;;;;;;6.07;3.40;;;16.70;52.50;;;;;;5041283;28;20053;-37
2023/06/01 04:45:04;;;;;;;7.80;3.45;;;16.70;52.50;;;;;;5042096;28;20053;-37
2023/06/01 04:47:31;;;;;;;8.77;3.42;;;16.70;52.60;;;;;;5038447;28;20049;-50
2023/06/01 04:50:00;;;;;;;9.75;4.43;;;16.70;52.60;;;;;;5040406;28;20056;-45
2023/06/01 04:52:28;;;;;;;6.65;3.60;;;16.70;53.00;;;;;;5039915;28;20049;-44
2023/06/01 04:54:55;;;;;;;5.63;3.80;;;16.70;53.00;;;;;;5042671;28;20079;-44
2023/06/01 04:57:35;;;;;;;8.10;3.97;;;16.70;53.30;;;;;;5041287;28;20458;-50
2023/06/01 05:00:06;;;;;;;9.68;4.20;;;16.70;53.40;;;;;;5040461;28;20053;-47
2023/06/01 05:02:33;;;;;;;9.65;4.57;;;16.70;53.50;;;;;;5039785;28;20060;-44
2023/06/01 05:05:01;;;;;;;8.95;4.60;;;16.70;53.70;;;;;;5041707;28;20527;-46
2023/06/01 05:07:29;;;;;;;6.55;4.10;;;16.80;53.70;;;;;;5040360;28;20064;-49
2023/06/01 05:09:56;;;;;;;12.18;5.28;;;16.80;54.10;;;;;;5043003;28;20049;-49
2023/06/01 05:12:23;;;;;;;8.82;4.32;;;16.80;53.90;;;;;;5042562;28;20492;-47
2023/06/01 05:14:51;;;;;;;13.07;5.28;;;16.80;53.90;;;;;;5042591;28;20516;-50
2023/06/01 05:17:18;;;;;;;11.65;6.15;;;16.90;53.90;;;;;;5041685;28;20083;-48
2023/06/01 05:19:45;;;;;;;12.40;6.40;;;16.90;54.00;;;;;;5041865;28;20048;-45
2023/06/01 05:22:14;;;;;;;10.25;5.30;;;17.00;53.90;;;;;;5040789;28;20068;-45
2023/06/01 05:24:41;;;;;;;15.68;5.55;;;17.00;53.90;;;;;;5042032;28;20382;-47
2023/06/01 05:27:08;;;;;;;12.00;4.93;;;17.00;53.90;;;;;;5042194;28;20057;-47
2023/06/01 05:29:35;;;;;;;11.25;5.13;;;17.00;53.90;;;;;;5041015;28;20517;-48
2023/06/01 05:32:03;;;;;;;11.85;5.60;;;17.10;54.10;;;;;;5045250;28;20049;-47
2023/06/01 05:34:30;;;;;;;10.15;5.13;;;17.10;54.30;;;;;;5045688;28;20603;-45
2023/06/01 05:36:58;;;;;;;12.23;5.32;;;17.20;54.30;;;;;;5045599;28;20060;-44
2023/06/01 05:49:59;;;;;;;12.15;5.05;;;17.30;54.30;;;;;;5056786;28;20044;-50
2023/06/01 05:52:26;;;;;;;12.30;5.53;;;17.40;54.10;;;;;;5044085;28;20408;-44
2023/06/01 05:54:54;;;;;;;14.27;6.25;;;17.40;53.90;;;;;;5046541;28;20059;-44
2023/06/01 05:57:21;;;;;;;9.10;5.13;;;17.40;54.00;;;;;;5045419;28;20052;-40
2023/06/01 05:59:48;;;;;;;7.28;4.53;;;17.50;53.90;;;;;;5045772;28;20045;-39
2023/06/01 06:02:15;;;;;;;10.18;5.15;;;17.50;53.90;;;;;;5045176;28;20063;-38
2023/06/01 06:04:43;;;;;;;13.32;5.93;;;17.50;54.10;;;;;;5044844;28;20057;-38
2023/06/01 06:07:12;;;;;;;12.32;5.22;;;17.60;54.30;;;;;;5044526;28;20056;-37
2023/06/01 06:09:40;;;;;;;12.55;5.10;;;17.60;55.00;;;;;;5044154;28;20052;-38
2023/06/01 06:12:08;;;;;;;8.65;5.10;;;17.70;54.40;;;;;;5045229;28;20049;-37
2023/06/01 06:14:35;;;;;;;10.40;5.25;;;17.70;54.30;;;;;;5044862;28;20511;-39
2023/06/01 06:17:02;;;;;;;11.32;5.32;;;17.80;54.10;;;;;;5044651;28;20048;-36
2023/06/01 06:19:30;;;;;;;9.60;5.72;;;17.80;54.20;;;;;;5044889;28;20539;-36
2023/06/01 06:21:57;;;;;;;11.85;5.00;;;17.80;54.10;;;;;;5044409;28;20515;-38
2023/06/01 06:24:26;;;;;;;14.40;6.15;;;17.90;53.90;;;;;;5045436;28;20578;-37
2023/06/01 06:26:53;;;;;;;13.55;5.43;;;17.90;53.90;;;;;;5045289;28;20055;-37
2023/06/01 06:29:20;;;;;;;11.68;5.22;;;17.90;54.00;;;;;;5044885;28;20394;-37
2023/06/01 06:31:49;;;;;;;12.75;6.03;;;18.00;54.00;;;;;;5044508;28;20065;-39
2023/06/01 06:34:16;;;;;;;10.82;5.72;;;18.00;54.30;;;;;;5046026;28;20056;-36
2023/06/01 06:36:43;;;;;;;10.75;5.68;;;18.10;54.30;;;;;;5041454;28;20049;-37
2023/06/01 06:39:11;;;;;;;13.73;5.85;;;18.10;54.10;;;;;;5043369;28;20412;-37
2023/06/01 06:41:41;;;;;;;14.48;6.65;;;18.20;54.00;;;;;;5042767;28;20053;-37
2023/06/01 06:44:08;;;;;;;11.40;6.00;;;18.20;54.20;;;;;;5042528;28;20533;-40
2023/06/01 06:46:35;;;;;;;14.10;6.90;;;18.30;54.80;;;;;;5042504;28;20397;-38
2023/06/01 06:49:02;;;;;;;12.15;6.07;;;18.30;54.20;;;;;;5042873;28;20045;-39
2023/06/01 06:51:30;;;;;;;11.27;5.80;;;18.30;54.50;;;;;;5039954;28;20045;-40
2023/06/01 06:54:02;;;;;;;11.02;6.00;;;18.40;53.90;;;;;;5044213;28;20044;-38
2023/06/01 06:56:29;;;;;;;11.85;6.50;;;18.40;54.00;;;;;;5044315;28;20053;-37
2023/06/01 06:58:57;;;;;;;13.63;6.03;;;18.50;53.90;;;;;;5044167;28;20052;-37
2023/06/01 07:01:26;;;;;;;14.00;5.93;;;18.60;53.90;;;;;;5044584;28;20444;-39
2023/06/01 07:03:55;;;;;;;12.65;6.43;;;18.60;54.10;;;;;;5043956;28;20064;-40
2023/06/01 07:06:22;;;;;;;12.20;6.07;;;18.60;53.90;;;;;;5043297;28;20056;-46
2023/06/01 07:08:50;;;;;;;13.52;6.68;;;18.70;53.90;;;;;;5044321;28;20060;-42
2023/06/01 07:11:18;;;;;;;13.90;5.90;;;18.70;53.80;;;;;;5043951;28;20591;-48
2023/06/01 07:13:45;;;;;;;11.20;6.88;;;18.80;53.80;;;;;;5044759;28;20056;-48
2023/06/01 07:16:13;;;;;;;13.57;5.93;;;18.80;53.60;;;;;;5045030;28;20053;-49
2023/06/01 07:18:40;;;;;;;17.65;6.60;;;18.90;53.50;;;;;;5042904;28;20523;-46
2023/06/01 07:21:08;;;;;;;12.23;6.03;;;18.90;53.50;;;;;;5042546;28;20138;-45
2023/06/01 07:23:35;;;;;;;12.50;6.82;;;19.00;53.40;;;;;;5043020;28;20053;-43
2023/06/01 07:26:02;;;;;;;14.02;6.50;;;18.90;53.20;;;;;;5043994;28;20053;-48
2023/06/01 07:28:30;;;;;;;12.32;5.85;;;19.00;53.40;;;;;;5044441;28;20063;-46
2023/06/01 07:30:57;;;;;;;14.55;5.78;;;19.00;53.20;;;;;;5043549;28;20342;-47
2023/06/01 07:33:26;;;;;;;8.70;4.95;;;19.00;53.30;;;;;;5043374;28;20393;-44
2023/06/01 07:35:53;;;;;;;11.82;5.68;;;19.10;53.20;;;;;;5044142;28;20064;-50
2023/06/01 07:38:21;;;;;;;12.70;6.78;;;19.10;53.20;;;;;;5042242;28;20053;-45
2023/06/01 07:40:48;;;;;;;13.13;5.57;;;19.10;53.10;;;;;;5040941;28;20055;-46
2023/06/01 07:43:16;;;;;;;15.13;5.57;;;19.20;53.20;;;;;;5043829;28;20056;-46
2023/06/01 07:45:43;;;;;;;14.38;6.25;;;19.30;53.10;;;;;;5043526;28;20053;-49
2023/06/01 07:48:10;;;;;;;13.02;5.78;;;19.30;52.50;;;;;;5043488;28;20053;-50
2023/06/01 07:50:38;;;;;;;8.82;5.25;;;19.40;52.30;;;;;;5041364;28;20053;-48
2023/06/01 07:53:06;;;;;;;13.82;5.90;;;19.40;52.60;;;;;;5041825;28;20079;-49
2023/06/01 07:55:33;;;;;;;11.82;5.25;;;19.40;52.20;;;;;;5043884;28;20056;-46
2023/06/01 07:58:00;;;;;;;8.38;5.28;;;19.50;52.50;;;;;;5041452;28;20052;-51
2023/06/01 08:00:28;;;;;;;15.55;5.90;;;19.50;52.50;;;;;;5043798;28;20056;-45
2023/06/01 08:02:55;;;;;;;13.80;5.95;;;19.50;52.50;;;;;;5042519;28;20053;-43
2023/06/01 08:05:22;;;;;;;15.40;7.75;;;19.60;52.30;;;;;;5042885;28;20064;-47
2023/06/01 08:07:52;;;;;;;12.43;7.13;;;19.60;52.30;;;;;;5041485;28;20057;-50
2023/06/01 08:10:19;;;;;;;14.02;7.30;;;19.70;52.30;;;;;;5043829;28;20420;-49
2023/06/01 08:12:47;;;;;;;15.80;7.97;;;19.70;52.10;;;;;;5042538;28;20053;-48
2023/06/01 08:15:15;;;;;;;18.35;10.00;;;19.80;52.10;;;;;;5042836;28;20408;-48
2023/06/01 08:17:43;;;;;;;18.40;10.02;;;19.80;52.10;;;;;;5042249;28;20063;-50
2023/06/01 08:20:12;;;;;;;17.17;10.88;;;19.90;52.30;;;;;;5043313;28;20056;-46
2023/06/01 08:22:40;;;;;;;23.90;11.73;;;19.90;52.20;;;;;;5041844;28;20053;-49
2023/06/01 08:25:09;;;;;;;24.38;13.00;;;19.90;52.00;;;;;;5043018;28;20416;-48
2023/06/01 08:27:36;;;;;;;22.70;12.27;;;20.00;51.80;;;;;;5042573;28;20064;-50
2023/06/01 08:30:05;;;;;;;23.45;13.02;;;20.00;51.70;;;;;;5042495;28;20048;-49
2023/06/01 08:32:32;;;;;;;29.23;15.45;;;20.10;51.90;;;;;;5040703;28;20068;-46
2023/06/01 08:35:00;;;;;;;26.63;14.95;;;20.00;51.90;;;;;;5042804;28;20052;-46
2023/06/01 08:37:27;;;;;;;28.45;15.65;;;20.10;51.50;;;;;;5041684;28;20056;-46
2023/06/01 08:39:54;;;;;;;37.05;18.05;;;20.10;51.70;;;;;;5040515;28;20056;-45
2023/06/01 08:42:30;;;;;;;28.55;16.33;;;20.10;51.40;;;;;;5042501;28;20064;-49
2023/06/01 08:44:58;;;;;;;25.67;15.25;;;20.20;51.70;;;;;;5041929;28;20065;-48
2023/06/01 08:47:26;;;;;;;31.88;18.27;;;20.20;51.60;;;;;;5039434;28;20488;-49
2023/06/01 08:49:54;;;;;;;35.67;18.35;;;20.20;51.60;;;;;;5039885;28;20048;-50
2023/06/01 08:52:24;;;;;;;30.67;16.40;;;20.30;52.00;;;;;;5040066;28;20068;-48
2023/06/01 08:54:51;;;;;;;40.42;18.92;;;20.30;51.90;;;;;;5041848;28;20060;-50
2023/06/01 08:57:20;;;;;;;31.48;18.83;;;20.40;51.70;;;;;;5042253;28;20381;-42
2023/06/01 08:59:48;;;;;;;36.83;20.42;;;20.40;51.70;;;;;;5041933;28;20053;-46
2023/06/01 09:02:16;;;;;;;30.75;18.27;;;20.40;51.30;;;;;;5041361;28;20064;-42
2023/06/01 09:04:44;;;;;;;36.30;19.92;;;20.40;51.10;;;;;;5039295;28;20060;-46
2023/06/01 09:07:12;;;;;;;32.65;18.52;;;20.50;51.40;;;;;;5040451;28;20056;-50
2023/06/01 09:09:39;;;;;;;40.42;22.58;;;20.50;51.20;;;;;;5040716;28;20052;-48
2023/06/01 09:12:21;;;;;;;37.83;20.35;;;20.50;51.00;;;;;;5041337;28;20053;-49
2023/06/01 09:14:50;;;;;;;38.53;21.20;;;20.50;51.00;;;;;;5040466;28;20048;-50
2023/06/01 09:17:22;;;;;;;43.13;20.58;;;20.60;50.90;;;;;;5040558;28;20053;-47
2023/06/01 09:19:54;;;;;;;37.60;21.40;;;20.60;51.10;;;;;;5040207;28;20373;-46
2023/06/01 09:22:21;;;;;;;37.88;20.02;;;20.60;50.70;;;;;;5039756;28;20056;-46
2023/06/01 09:24:59;;;;;;;37.70;22.05;;;20.60;50.50;;;;;;5039895;28;20060;-49
2023/06/01 09:27:27;;;;;;;32.50;19.77;;;20.60;50.90;;;;;;5040800;28;20428;-42
2023/06/01 09:29:59;;;;;;;40.13;21.35;;;20.60;50.80;;;;;;5041294;28;20385;-40
2023/06/01 09:32:26;;;;;;;36.80;21.58;;;20.70;50.40;;;;;;5036852;28;20057;-43
2023/06/01 09:34:54;;;;;;;35.40;19.80;;;20.60;50.50;;;;;;5041704;28;20057;-38
2023/06/01 09:37:22;;;;;;;36.88;22.15;;;20.70;50.70;;;;;;5038536;28;20057;-41
2023/06/01 09:39:49;;;;;;;43.08;20.75;;;20.70;50.80;;;;;;5040419;28;20053;-38
2023/06/01 09:42:16;;;;;;;40.95;21.85;;;20.70;50.90;;;;;;5042416;28;20056;-39
2023/06/01 09:44:46;;;;;;;31.70;19.80;;;20.70;50.80;;;;;;5040943;28;20045;-40
2023/06/01 09:47:15;;;;;;;41.47;22.65;;;20.80;50.60;;;;;;5039979;28;20052;-42
2023/06/01 09:49:44;;;;;;;39.65;23.02;;;20.80;50.60;;;;;;5040326;28;20095;-40
2023/06/01 09:52:18;;;;;;;39.33;22.38;;;20.90;50.90;;;;;;5035449;28;20453;-40
2023/06/01 09:54:58;;;;;;;;;;;20.90;51.00;;;;;;5039776;28;20509;-39
2023/06/01 10:00:43;;;;;;;36.85;20.52;;;21.00;50.50;;;;;;4939074;28;20062;-37
2023/06/01 10:03:12;;;;;;;33.65;20.50;;;21.00;50.20;;;;;;5038610;28;20049;-39
2023/06/01 10:05:40;;;;;;;40.10;23.80;;;21.00;50.60;;;;;;5039287;28;20519;-36
2023/06/01 10:08:07;;;;;;;33.90;19.80;;;21.00;50.00;;;;;;5039841;28;20056;-39
2023/06/01 10:10:35;;;;;;;37.25;23.45;;;21.00;50.10;;;;;;5041949;28;20053;-36
2023/06/01 10:13:02;;;;;;;35.92;21.95;;;21.00;49.70;;;;;;5039069;28;20049;-45
2023/06/01 10:15:29;;;;;;;36.65;20.70;;;21.10;49.80;;;;;;5041506;28;20064;-44
2023/06/01 10:17:57;;;;;;;40.72;21.80;;;21.00;49.90;;;;;;5042025;28;20045;-43
2023/06/01 10:20:26;;;;;;;33.03;20.60;;;21.10;50.20;;;;;;5045132;28;20059;-43
2023/06/01 10:22:53;;;;;;;43.38;24.95;;;21.10;50.10;;;;;;5044156;28;20397;-38
2023/06/01 10:25:24;;;;;;;42.60;22.73;;;21.10;49.60;;;;;;5045547;28;20488;-41
2023/06/01 10:27:58;;;;;;;36.25;21.50;;;21.20;49.70;;;;;;5045308;28;20057;-38
2023/06/01 10:30:25;;;;;;;35.08;20.90;;;21.20;49.50;;;;;;5044719;28;20493;-39
2023/06/01 10:32:54;;;;;;;36.40;23.17;;;21.20;49.30;;;;;;5045450;28;20059;-37
2023/06/01 10:35:53;;;;;;;39.20;21.65;;;21.20;49.30;;;;;;5045470;28;20060;-38
2023/06/01 10:38:27;;;;;;;40.05;19.42;;;21.20;49.30;;;;;;5043218;28;20057;-48
2023/06/01 10:41:10;;;;;;;29.43;19.00;;;21.20;49.50;;;;;;5045066;28;20059;-43
2023/06/01 10:43:41;;;;;;;30.20;18.92;;;21.30;49.30;;;;;;5044678;28;20057;-47
2023/06/01 10:46:36;;;;;;;38.40;21.45;;;21.30;49.30;;;;;;5044150;28;20056;-48
2023/06/01 10:49:04;;;;;;;37.92;20.70;;;21.30;49.60;;;;;;5044974;28;20056;-48
2023/06/01 10:51:33;;;;;;;29.23;19.75;;;21.40;49.10;;;;;;5040741;28;20052;-45
2023/06/01 10:54:29;;;;;;;37.72;20.70;;;21.40;49.20;;;;;;5044457;28;20545;-47
2023/06/01 10:57:24;;;;;;;27.35;17.52;;;21.40;48.90;;;;;;4998111;28;20049;-44
2023/06/01 11:00:14;;;;;;;36.30;20.55;;;21.50;48.60;;;;;;5044584;28;20048;-46
2023/06/01 11:02:50;;;;;;;32.15;18.60;;;21.50;48.30;;;;;;5041888;28;20049;-45
2023/06/01 11:05:40;;;;;;;23.10;15.50;;;21.60;48.20;;;;;;5043577;28;20053;-47
2023/06/01 11:08:44;;;;;;;30.70;19.02;;;21.60;48.30;;;;;;5041722;28;20057;-47
2023/06/01 11:11:11;;;;;;;28.38;16.65;;;21.70;47.60;;;;;;5043140;28;20056;-42
2023/06/01 11:13:39;;;;;;;32.33;18.50;;;21.70;47.70;;;;;;5043434;28;20868;-45
2023/06/01 11:16:31;;;;;;;27.17;16.77;;;21.70;47.40;;;;;;5041311;28;20053;-51
2023/06/01 11:19:00;;;;;;;25.38;15.00;;;21.70;46.70;;;;;;5042189;28;20905;-43
2023/06/01 11:21:28;;;;;;;30.30;17.25;;;21.70;46.70;;;;;;5040130;28;20661;-50
2023/06/01 11:23:59;;;;;;;26.55;16.25;;;21.70;46.50;;;;;;5044343;28;20056;-48
2023/06/01 11:26:31;;;;;;;21.85;13.70;;;21.80;45.90;;;;;;5043076;28;20079;-48
2023/06/01 11:29:13;;;;;;;25.58;16.15;;;21.80;45.90;;;;;;5041766;28;20405;-49
2023/06/01 11:31:45;;;;;;;23.92;16.33;;;21.80;45.70;;;;;;5043140;28;20049;-45
2023/06/01 11:34:15;;;;;;;26.60;17.70;;;21.90;46.10;;;;;;5042069;28;20047;-45
2023/06/01 11:36:47;;;;;;;29.92;17.20;;;21.90;45.00;;;;;;5037788;28;20063;-48
2023/06/01 11:39:22;;;;;;;33.03;18.50;;;21.90;45.40;;;;;;5044437;28;20485;-47
2023/06/01 11:41:51;;;;;;;30.30;17.92;;;21.90;45.00;;;;;;5044296;28;20057;-42
2023/06/01 11:44:19;;;;;;;31.70;18.05;;;21.90;44.30;;;;;;5044318;28;20064;-46
2023/06/01 11:46:52;;;;;;;27.55;16.10;;;21.90;43.90;;;;;;5042645;28;20049;-42
2023/06/01 11:49:19;;;;;;;28.45;16.00;;;21.90;45.00;;;;;;5043445;28;20060;-44
2023/06/01 11:51:47;;;;;;;22.60;15.10;;;22.00;44.80;;;;;;5041520;28;20818;-44
2023/06/01 11:54:14;;;;;;;22.60;14.15;;;22.00;44.50;;;;;;5043485;28;20064;-47
2023/06/01 11:56:43;;;;;;;28.23;16.25;;;22.00;44.40;;;;;;5042090;28;20060;-45
2023/06/01 11:59:12;;;;;;;28.88;15.38;;;22.10;43.70;;;;;;5044014;28;20067;-46
2023/06/01 12:01:43;;;;;;;32.30;14.82;;;22.10;43.00;;;;;;5041433;28;20045;-45
2023/06/01 12:04:13;;;;;;;24.92;14.77;;;22.20;43.60;;;;;;5041132;28;20428;-48
2023/06/01 12:06:40;;;;;;;31.25;16.10;;;22.20;43.50;;;;;;5041479;28;20052;-50
2023/06/01 12:09:08;;;;;;;23.67;13.32;;;22.20;43.40;;;;;;5041757;28;20056;-49
2023/06/01 12:11:36;;;;;;;25.05;15.23;;;22.30;43.40;;;;;;5039549;28;20500;-46
2023/06/01 12:14:06;;;;;;;30.38;16.35;;;22.30;42.70;;;;;;5044275;28;20057;-46
2023/06/01 12:16:55;;;;;;;26.63;15.48;;;22.40;41.80;;;;;;5042084;28;20511;-46
2023/06/01 12:19:23;;;;;;;32.13;17.00;;;22.40;41.10;;;;;;5042222;28;20497;-44
2023/06/01 12:21:51;;;;;;;29.70;15.32;;;22.50;41.10;;;;;;5041617;28;20068;-46
2023/06/01 12:24:19;;;;;;;25.77;14.75;;;22.40;40.90;;;;;;5043063;28;20049;-44
2023/06/01 12:26:46;;;;;;;28.65;16.25;;;22.40;40.50;;;;;;5041895;28;20055;-41
2023/06/01 12:29:15;;;;;;;23.27;13.90;;;22.50;40.40;;;;;;5042811;28;20052;-47
2023/06/01 12:31:54;;;;;;;25.65;15.57;;;22.50;41.60;;;;;;5041359;28;20481;-45
2023/06/01 12:34:21;;;;;;;24.75;14.80;;;22.50;41.50;;;;;;5042937;28;20390;-46
2023/06/01 12:36:48;;;;;;;21.20;12.43;;;22.60;40.90;;;;;;5041314;28;20424;-43
2023/06/01 12:39:16;;;;;;;19.92;12.50;;;22.60;41.70;;;;;;5042504;28;20079;-45
2023/06/01 12:41:50;;;;;;;21.48;13.02;;;22.70;41.20;;;;;;5040083;28;20052;-45
2023/06/01 12:44:22;;;;;;;27.83;13.73;;;22.70;39.70;;;;;;5041863;28;20059;-50
2023/06/01 12:46:58;;;;;;;24.65;13.55;;;22.80;39.60;;;;;;5040911;28;20059;-49
2023/06/01 12:49:25;;;;;;;18.27;11.82;;;22.90;39.20;;;;;;5040359;28;20053;-40
2023/06/01 12:51:53;;;;;;;18.95;11.32;;;22.90;39.60;;;;;;5040968;28;20404;-42
2023/06/01 12:54:20;;;;;;;17.65;11.43;;;22.90;40.00;;;;;;5042696;28;20404;-39
2023/06/01 12:56:49;;;;;;;25.50;12.27;;;22.90;40.20;;;;;;5042519;28;20675;-41
2023/06/01 12:59:16;;;;;;;18.92;10.93;;;23.00;39.40;;;;;;5042451;28;20052;-38
2023/06/01 13:01:45;;;;;;;18.42;11.35;;;23.00;39.40;;;;;;5041587;28;20052;-38
2023/06/01 13:04:12;;;;;;;18.80;12.10;;;23.10;39.90;;;;;;5039302;28;20424;-37
2023/06/01 13:06:39;;;;;;;17.95;10.35;;;23.10;39.80;;;;;;5040428;28;20052;-38